sensor_id;sensor_type;location;lat;lon;timestamp;P1;durP1;ratioP1;P2;durP2;ratioP2
3307;SDS011;1666;48.898;9.182;2022-07-30T00:01:56;6.20;;;4.95;;
3307;SDS011;1666;48.898;9.182;2022-07-30T00:04:26;6.78;;;5.32;;
3307;SDS011;1666;48.898;9.182;2022-07-30T00:06:57;9.70;;;6.15;;
3307;SDS011;1666;48.898;9.182;2022-07-30T00:09:30;8.38;;;5.70;;
3307;SDS011;1666;48.898;9.182;2022-07-30T00:12:02;6.30;;;5.65;;
3307;SDS011;1666;48.898;9.182;2022-07-30T00:14:32;6.15;;;5.20;;
3307;SDS011;1666;48.898;9.182;2022-07-30T00:17:05;5.72;;;5.10;;
3307;SDS011;1666;48.898;9.182;2022-07-30T00:19:35;8.00;;;4.93;;
3307;SDS011;1666;48.898;9.182;2022-07-30T00:22:05;6.47;;;5.03;;
3307;SDS011;1666;48.898;9.182;2022-07-30T00:24:35;5.47;;;4.20;;
3307;SDS011;1666;48.898;9.182;2022-07-30T00:27:10;5.65;;;4.53;;
3307;SDS011;1666;48.898;9.182;2022-07-30T00:29:42;5.05;;;4.00;;
3307;SDS011;1666;48.898;9.182;2022-07-30T00:32:14;4.75;;;4.28;;
3307;SDS011;1666;48.898;9.182;2022-07-30T00:34:44;4.78;;;4.07;;
3307;SDS011;1666;48.898;9.182;2022-07-30T00:37:14;5.65;;;4.88;;
3307;SDS011;1666;48.898;9.182;2022-07-30T00:39:44;5.80;;;4.38;;
3307;SDS011;1666;48.898;9.182;2022-07-30T00:42:37;4.75;;;4.32;;
3307;SDS011;1666;48.898;9.182;2022-07-30T00:45:08;6.05;;;4.18;;
3307;SDS011;1666;48.898;9.182;2022-07-30T00:47:42;5.50;;;3.63;;
3307;SDS011;1666;48.898;9.182;2022-07-30T00:50:13;3.95;;;3.55;;
3307;SDS011;1666;48.898;9.182;2022-07-30T00:52:44;5.43;;;4.05;;
3307;SDS011;1666;48.898;9.182;2022-07-30T00:55:14;6.20;;;3.70;;
3307;SDS011;1666;48.898;9.182;2022-07-30T00:57:44;4.18;;;3.78;;
3307;SDS011;1666;48.898;9.182;2022-07-30T01:00:17;4.70;;;3.80;;
3307;SDS011;1666;48.898;9.182;2022-07-30T01:02:49;4.13;;;3.67;;
3307;SDS011;1666;48.898;9.182;2022-07-30T01:05:22;6.03;;;4.32;;
3307;SDS011;1666;48.898;9.182;2022-07-30T01:07:56;5.88;;;4.30;;
3307;SDS011;1666;48.898;9.182;2022-07-30T01:10:26;6.30;;;4.68;;
3307;SDS011;1666;48.898;9.182;2022-07-30T01:12:56;4.68;;;4.03;;
3307;SDS011;1666;48.898;9.182;2022-07-30T01:15:27;7.15;;;4.50;;
3307;SDS011;1666;48.898;9.182;2022-07-30T01:18:01;6.45;;;4.93;;
3307;SDS011;1666;48.898;9.182;2022-07-30T01:20:35;4.32;;;3.90;;
3307;SDS011;1666;48.898;9.182;2022-07-30T01:23:12;5.55;;;4.22;;
3307;SDS011;1666;48.898;9.182;2022-07-30T01:25:54;4.80;;;4.13;;
3307;SDS011;1666;48.898;9.182;2022-07-30T01:28:27;4.60;;;4.20;;
3307;SDS011;1666;48.898;9.182;2022-07-30T01:31:01;5.50;;;4.20;;
3307;SDS011;1666;48.898;9.182;2022-07-30T01:33:32;5.43;;;4.28;;
3307;SDS011;1666;48.898;9.182;2022-07-30T01:36:05;4.65;;;4.20;;
3307;SDS011;1666;48.898;9.182;2022-07-30T01:38:37;5.78;;;4.53;;
3307;SDS011;1666;48.898;9.182;2022-07-30T01:41:12;5.05;;;4.55;;
3307;SDS011;1666;48.898;9.182;2022-07-30T01:43:42;6.03;;;4.53;;
3307;SDS011;1666;48.898;9.182;2022-07-30T01:46:15;5.70;;;4.50;;
3307;SDS011;1666;48.898;9.182;2022-07-30T01:48:46;6.47;;;4.97;;
3307;SDS011;1666;48.898;9.182;2022-07-30T01:51:17;5.18;;;4.65;;
3307;SDS011;1666;48.898;9.182;2022-07-30T01:53:48;5.30;;;4.22;;
3307;SDS011;1666;48.898;9.182;2022-07-30T01:56:22;8.00;;;4.72;;
3307;SDS011;1666;48.898;9.182;2022-07-30T01:58:53;4.65;;;3.92;;
3307;SDS011;1666;48.898;9.182;2022-07-30T02:01:25;5.38;;;4.53;;
3307;SDS011;1666;48.898;9.182;2022-07-30T02:03:55;5.28;;;4.18;;
3307;SDS011;1666;48.898;9.182;2022-07-30T02:06:29;6.68;;;4.05;;
3307;SDS011;1666;48.898;9.182;2022-07-30T02:09:04;8.00;;;4.10;;
3307;SDS011;1666;48.898;9.182;2022-07-30T02:11:40;5.95;;;4.30;;
3307;SDS011;1666;48.898;9.182;2022-07-30T02:14:27;5.05;;;4.20;;
3307;SDS011;1666;48.898;9.182;2022-07-30T02:17:00;6.63;;;3.72;;
3307;SDS011;1666;48.898;9.182;2022-07-30T02:19:44;4.63;;;3.78;;
3307;SDS011;1666;48.898;9.182;2022-07-30T02:22:17;4.85;;;4.07;;
3307;SDS011;1666;48.898;9.182;2022-07-30T02:24:49;5.18;;;4.30;;
3307;SDS011;1666;48.898;9.182;2022-07-30T02:27:23;5.13;;;4.15;;
3307;SDS011;1666;48.898;9.182;2022-07-30T02:29:56;5.65;;;4.35;;
3307;SDS011;1666;48.898;9.182;2022-07-30T02:32:29;6.75;;;4.10;;
3307;SDS011;1666;48.898;9.182;2022-07-30T02:37:36;5.10;;;4.38;;
3307;SDS011;1666;48.898;9.182;2022-07-30T02:40:10;6.93;;;4.68;;
3307;SDS011;1666;48.898;9.182;2022-07-30T02:45:18;5.20;;;4.20;;
3307;SDS011;1666;48.898;9.182;2022-07-30T02:47:50;7.28;;;4.85;;
3307;SDS011;1666;48.898;9.182;2022-07-30T02:50:22;5.13;;;4.53;;
3307;SDS011;1666;48.898;9.182;2022-07-30T02:52:55;4.72;;;4.32;;
3307;SDS011;1666;48.898;9.182;2022-07-30T02:55:28;5.28;;;3.95;;
3307;SDS011;1666;48.898;9.182;2022-07-30T02:58:04;7.72;;;4.65;;
3307;SDS011;1666;48.898;9.182;2022-07-30T03:00:35;5.15;;;4.60;;
3307;SDS011;1666;48.898;9.182;2022-07-30T03:03:06;7.78;;;5.13;;
3307;SDS011;1666;48.898;9.182;2022-07-30T03:05:38;5.18;;;4.28;;
3307;SDS011;1666;48.898;9.182;2022-07-30T03:08:09;8.73;;;4.50;;
3307;SDS011;1666;48.898;9.182;2022-07-30T03:10:45;5.53;;;4.70;;
3307;SDS011;1666;48.898;9.182;2022-07-30T03:13:19;7.72;;;4.53;;
3307;SDS011;1666;48.898;9.182;2022-07-30T03:15:50;5.05;;;4.32;;
3307;SDS011;1666;48.898;9.182;2022-07-30T03:18:21;6.30;;;4.13;;
3307;SDS011;1666;48.898;9.182;2022-07-30T03:20:56;6.50;;;4.40;;
3307;SDS011;1666;48.898;9.182;2022-07-30T03:23:28;6.72;;;4.63;;
3307;SDS011;1666;48.898;9.182;2022-07-30T03:26:03;6.25;;;5.18;;
3307;SDS011;1666;48.898;9.182;2022-07-30T03:28:38;8.57;;;5.18;;
3307;SDS011;1666;48.898;9.182;2022-07-30T03:31:09;5.47;;;4.70;;
3307;SDS011;1666;48.898;9.182;2022-07-30T03:33:40;7.07;;;4.82;;
3307;SDS011;1666;48.898;9.182;2022-07-30T03:36:12;6.28;;;4.72;;
3307;SDS011;1666;48.898;9.182;2022-07-30T03:38:43;6.00;;;4.40;;
3307;SDS011;1666;48.898;9.182;2022-07-30T03:41:14;6.03;;;4.80;;
3307;SDS011;1666;48.898;9.182;2022-07-30T03:43:47;6.35;;;4.68;;
3307;SDS011;1666;48.898;9.182;2022-07-30T03:46:18;7.28;;;5.13;;
3307;SDS011;1666;48.898;9.182;2022-07-30T03:48:49;5.63;;;4.93;;
3307;SDS011;1666;48.898;9.182;2022-07-30T03:51:20;6.93;;;4.78;;
3307;SDS011;1666;48.898;9.182;2022-07-30T03:53:58;8.45;;;5.15;;
3307;SDS011;1666;48.898;9.182;2022-07-30T03:56:28;6.15;;;4.75;;
3307;SDS011;1666;48.898;9.182;2022-07-30T03:59:01;11.70;;;5.40;;
3307;SDS011;1666;48.898;9.182;2022-07-30T04:01:32;6.32;;;4.70;;
3307;SDS011;1666;48.898;9.182;2022-07-30T04:04:05;6.95;;;4.82;;
3307;SDS011;1666;48.898;9.182;2022-07-30T04:06:36;6.03;;;5.05;;
3307;SDS011;1666;48.898;9.182;2022-07-30T04:09:09;9.13;;;4.95;;
3307;SDS011;1666;48.898;9.182;2022-07-30T04:11:40;8.25;;;5.40;;
3307;SDS011;1666;48.898;9.182;2022-07-30T04:14:13;7.03;;;5.30;;
3307;SDS011;1666;48.898;9.182;2022-07-30T04:16:43;6.78;;;4.88;;
3307;SDS011;1666;48.898;9.182;2022-07-30T04:19:19;4.80;;;4.30;;
3307;SDS011;1666;48.898;9.182;2022-07-30T04:21:53;4.72;;;4.30;;
3307;SDS011;1666;48.898;9.182;2022-07-30T04:24:25;9.48;;;5.10;;
3307;SDS011;1666;48.898;9.182;2022-07-30T04:26:56;6.00;;;4.57;;
3307;SDS011;1666;48.898;9.182;2022-07-30T04:29:30;7.43;;;5.00;;
3307;SDS011;1666;48.898;9.182;2022-07-30T04:32:00;5.38;;;4.88;;
3307;SDS011;1666;48.898;9.182;2022-07-30T04:34:30;7.80;;;4.32;;
3307;SDS011;1666;48.898;9.182;2022-07-30T04:37:01;6.13;;;4.35;;
3307;SDS011;1666;48.898;9.182;2022-07-30T04:39:31;9.48;;;4.70;;
3307;SDS011;1666;48.898;9.182;2022-07-30T04:42:01;7.22;;;4.93;;
3307;SDS011;1666;48.898;9.182;2022-07-30T04:44:34;10.63;;;4.72;;
3307;SDS011;1666;48.898;9.182;2022-07-30T04:47:04;6.68;;;4.72;;
3307;SDS011;1666;48.898;9.182;2022-07-30T04:49:34;10.30;;;6.05;;
3307;SDS011;1666;48.898;9.182;2022-07-30T04:52:04;6.55;;;4.88;;
3307;SDS011;1666;48.898;9.182;2022-07-30T04:54:36;7.00;;;5.13;;
3307;SDS011;1666;48.898;9.182;2022-07-30T04:57:09;4.80;;;4.30;;
3307;SDS011;1666;48.898;9.182;2022-07-30T04:59:43;5.53;;;4.70;;
3307;SDS011;1666;48.898;9.182;2022-07-30T05:02:13;7.63;;;5.15;;
3307;SDS011;1666;48.898;9.182;2022-07-30T05:04:45;8.02;;;5.40;;
3307;SDS011;1666;48.898;9.182;2022-07-30T05:07:17;6.05;;;4.63;;
3307;SDS011;1666;48.898;9.182;2022-07-30T05:09:48;6.38;;;5.10;;
3307;SDS011;1666;48.898;9.182;2022-07-30T05:12:18;7.05;;;4.70;;
3307;SDS011;1666;48.898;9.182;2022-07-30T05:14:50;8.88;;;4.85;;
3307;SDS011;1666;48.898;9.182;2022-07-30T05:17:20;6.93;;;4.63;;
3307;SDS011;1666;48.898;9.182;2022-07-30T05:19:50;5.70;;;4.38;;
3307;SDS011;1666;48.898;9.182;2022-07-30T05:22:19;6.95;;;4.47;;
3307;SDS011;1666;48.898;9.182;2022-07-30T05:24:50;8.52;;;4.70;;
3307;SDS011;1666;48.898;9.182;2022-07-30T05:27:20;7.22;;;4.93;;
3307;SDS011;1666;48.898;9.182;2022-07-30T05:29:53;6.47;;;4.72;;
3307;SDS011;1666;48.898;9.182;2022-07-30T05:32:23;6.82;;;5.05;;
3307;SDS011;1666;48.898;9.182;2022-07-30T05:34:57;6.32;;;4.57;;
3307;SDS011;1666;48.898;9.182;2022-07-30T05:37:27;6.47;;;5.22;;
3307;SDS011;1666;48.898;9.182;2022-07-30T05:39:58;6.35;;;4.70;;
3307;SDS011;1666;48.898;9.182;2022-07-30T05:42:29;8.80;;;5.13;;
3307;SDS011;1666;48.898;9.182;2022-07-30T05:45:01;5.88;;;4.35;;
3307;SDS011;1666;48.898;9.182;2022-07-30T05:47:32;10.30;;;5.28;;
3307;SDS011;1666;48.898;9.182;2022-07-30T05:50:02;7.35;;;4.88;;
3307;SDS011;1666;48.898;9.182;2022-07-30T05:52:32;8.35;;;5.10;;
3307;SDS011;1666;48.898;9.182;2022-07-30T05:55:02;7.28;;;4.75;;
3307;SDS011;1666;48.898;9.182;2022-07-30T05:57:33;6.22;;;4.40;;
3307;SDS011;1666;48.898;9.182;2022-07-30T06:00:07;6.00;;;4.75;;
3307;SDS011;1666;48.898;9.182;2022-07-30T06:02:38;6.07;;;4.63;;
3307;SDS011;1666;48.898;9.182;2022-07-30T06:05:08;5.53;;;4.55;;
3307;SDS011;1666;48.898;9.182;2022-07-30T06:07:38;8.55;;;4.72;;
3307;SDS011;1666;48.898;9.182;2022-07-30T06:10:08;9.98;;;4.95;;
3307;SDS011;1666;48.898;9.182;2022-07-30T06:12:38;6.68;;;4.60;;
3307;SDS011;1666;48.898;9.182;2022-07-30T06:15:11;6.25;;;4.80;;
3307;SDS011;1666;48.898;9.182;2022-07-30T06:17:46;6.90;;;4.82;;
3307;SDS011;1666;48.898;9.182;2022-07-30T06:23:00;7.05;;;4.35;;
3307;SDS011;1666;48.898;9.182;2022-07-30T06:25:30;5.93;;;4.45;;
3307;SDS011;1666;48.898;9.182;2022-07-30T06:28:00;6.43;;;4.75;;
3307;SDS011;1666;48.898;9.182;2022-07-30T06:30:52;7.35;;;4.65;;
3307;SDS011;1666;48.898;9.182;2022-07-30T06:33:22;8.45;;;4.63;;
3307;SDS011;1666;48.898;9.182;2022-07-30T06:35:52;9.27;;;4.75;;
3307;SDS011;1666;48.898;9.182;2022-07-30T06:38:22;6.35;;;4.72;;
3307;SDS011;1666;48.898;9.182;2022-07-30T06:40:52;6.32;;;4.43;;
3307;SDS011;1666;48.898;9.182;2022-07-30T06:43:28;8.88;;;4.88;;
3307;SDS011;1666;48.898;9.182;2022-07-30T06:46:01;7.90;;;5.00;;
3307;SDS011;1666;48.898;9.182;2022-07-30T06:48:31;4.90;;;4.07;;
3307;SDS011;1666;48.898;9.182;2022-07-30T06:51:02;7.85;;;4.90;;
3307;SDS011;1666;48.898;9.182;2022-07-30T06:53:32;6.93;;;4.60;;
3307;SDS011;1666;48.898;9.182;2022-07-30T06:56:08;8.18;;;4.63;;
3307;SDS011;1666;48.898;9.182;2022-07-30T06:58:38;6.35;;;4.40;;
3307;SDS011;1666;48.898;9.182;2022-07-30T07:01:12;7.57;;;5.05;;
3307;SDS011;1666;48.898;9.182;2022-07-30T07:03:42;7.13;;;4.60;;
3307;SDS011;1666;48.898;9.182;2022-07-30T07:06:12;8.27;;;4.65;;
3307;SDS011;1666;48.898;9.182;2022-07-30T07:08:42;6.65;;;4.47;;
3307;SDS011;1666;48.898;9.182;2022-07-30T07:11:12;6.20;;;4.90;;
3307;SDS011;1666;48.898;9.182;2022-07-30T07:13:42;8.20;;;4.55;;
3307;SDS011;1666;48.898;9.182;2022-07-30T07:16:14;7.88;;;4.32;;
3307;SDS011;1666;48.898;9.182;2022-07-30T07:18:47;6.15;;;4.15;;
3307;SDS011;1666;48.898;9.182;2022-07-30T07:21:17;7.57;;;4.05;;
3307;SDS011;1666;48.898;9.182;2022-07-30T07:23:50;6.50;;;4.13;;
3307;SDS011;1666;48.898;9.182;2022-07-30T07:26:20;6.15;;;4.03;;
3307;SDS011;1666;48.898;9.182;2022-07-30T07:28:50;6.90;;;4.53;;
3307;SDS011;1666;48.898;9.182;2022-07-30T07:31:22;6.82;;;4.35;;
3307;SDS011;1666;48.898;9.182;2022-07-30T07:34:13;8.90;;;4.28;;
3307;SDS011;1666;48.898;9.182;2022-07-30T07:36:43;5.78;;;3.72;;
3307;SDS011;1666;48.898;9.182;2022-07-30T07:39:13;6.95;;;4.38;;
3307;SDS011;1666;48.898;9.182;2022-07-30T07:41:43;5.80;;;4.35;;
3307;SDS011;1666;48.898;9.182;2022-07-30T07:44:15;5.07;;;3.97;;
3307;SDS011;1666;48.898;9.182;2022-07-30T07:46:47;7.07;;;4.30;;
3307;SDS011;1666;48.898;9.182;2022-07-30T07:49:17;5.70;;;3.92;;
3307;SDS011;1666;48.898;9.182;2022-07-30T07:51:47;23.75;;;5.47;;
3307;SDS011;1666;48.898;9.182;2022-07-30T07:54:17;6.13;;;4.75;;
3307;SDS011;1666;48.898;9.182;2022-07-30T07:56:49;6.13;;;3.75;;
3307;SDS011;1666;48.898;9.182;2022-07-30T07:59:22;8.13;;;4.38;;
3307;SDS011;1666;48.898;9.182;2022-07-30T08:02:08;4.83;;;4.07;;
3307;SDS011;1666;48.898;9.182;2022-07-30T08:04:38;7.30;;;3.78;;
3307;SDS011;1666;48.898;9.182;2022-07-30T08:07:08;6.53;;;3.60;;
3307;SDS011;1666;48.898;9.182;2022-07-30T08:09:38;8.25;;;4.05;;
3307;SDS011;1666;48.898;9.182;2022-07-30T08:12:10;6.13;;;4.05;;
3307;SDS011;1666;48.898;9.182;2022-07-30T08:14:40;6.50;;;3.65;;
3307;SDS011;1666;48.898;9.182;2022-07-30T08:17:12;6.80;;;4.05;;
3307;SDS011;1666;48.898;9.182;2022-07-30T08:19:42;5.55;;;3.88;;
3307;SDS011;1666;48.898;9.182;2022-07-30T08:22:12;5.82;;;3.88;;
3307;SDS011;1666;48.898;9.182;2022-07-30T08:24:42;7.47;;;5.57;;
3307;SDS011;1666;48.898;9.182;2022-07-30T08:27:16;6.82;;;4.57;;
3307;SDS011;1666;48.898;9.182;2022-07-30T08:29:46;5.88;;;3.90;;
3307;SDS011;1666;48.898;9.182;2022-07-30T08:32:18;8.23;;;3.50;;
3307;SDS011;1666;48.898;9.182;2022-07-30T08:34:48;5.53;;;3.00;;
3307;SDS011;1666;48.898;9.182;2022-07-30T08:37:18;9.52;;;3.30;;
3307;SDS011;1666;48.898;9.182;2022-07-30T08:39:48;7.75;;;3.70;;
3307;SDS011;1666;48.898;9.182;2022-07-30T08:42:18;4.00;;;3.08;;
3307;SDS011;1666;48.898;9.182;2022-07-30T08:44:49;5.75;;;3.58;;
3307;SDS011;1666;48.898;9.182;2022-07-30T08:47:24;5.55;;;4.32;;
3307;SDS011;1666;48.898;9.182;2022-07-30T08:50:00;5.45;;;3.97;;
3307;SDS011;1666;48.898;9.182;2022-07-30T08:52:34;6.22;;;3.30;;
3307;SDS011;1666;48.898;9.182;2022-07-30T08:55:05;8.10;;;3.10;;
3307;SDS011;1666;48.898;9.182;2022-07-30T08:57:36;3.45;;;2.80;;
3307;SDS011;1666;48.898;9.182;2022-07-30T09:00:07;4.20;;;3.15;;
3307;SDS011;1666;48.898;9.182;2022-07-30T09:02:40;5.97;;;4.03;;
3307;SDS011;1666;48.898;9.182;2022-07-30T09:05:10;5.05;;;3.72;;
3307;SDS011;1666;48.898;9.182;2022-07-30T09:07:41;4.57;;;3.20;;
3307;SDS011;1666;48.898;9.182;2022-07-30T09:10:11;4.97;;;3.30;;
3307;SDS011;1666;48.898;9.182;2022-07-30T09:12:43;11.85;;;4.43;;
3307;SDS011;1666;48.898;9.182;2022-07-30T09:15:14;5.30;;;3.80;;
3307;SDS011;1666;48.898;9.182;2022-07-30T09:17:52;6.60;;;3.17;;
3307;SDS011;1666;48.898;9.182;2022-07-30T09:20:24;3.72;;;3.33;;
3307;SDS011;1666;48.898;9.182;2022-07-30T09:22:56;4.15;;;3.13;;
3307;SDS011;1666;48.898;9.182;2022-07-30T09:25:36;4.30;;;3.40;;
3307;SDS011;1666;48.898;9.182;2022-07-30T09:28:08;9.43;;;3.75;;
3307;SDS011;1666;48.898;9.182;2022-07-30T09:30:43;4.80;;;2.63;;
3307;SDS011;1666;48.898;9.182;2022-07-30T09:33:16;4.35;;;3.03;;
3307;SDS011;1666;48.898;9.182;2022-07-30T09:36:01;4.70;;;2.60;;
3307;SDS011;1666;48.898;9.182;2022-07-30T09:38:41;4.53;;;3.40;;
3307;SDS011;1666;48.898;9.182;2022-07-30T09:41:13;3.97;;;2.75;;
3307;SDS011;1666;48.898;9.182;2022-07-30T09:44:04;4.53;;;2.83;;
3307;SDS011;1666;48.898;9.182;2022-07-30T09:46:40;5.75;;;2.65;;
3307;SDS011;1666;48.898;9.182;2022-07-30T09:49:16;6.00;;;3.20;;
3307;SDS011;1666;48.898;9.182;2022-07-30T09:57:05;4.82;;;2.75;;
3307;SDS011;1666;48.898;9.182;2022-07-30T09:59:52;4.35;;;2.53;;
3307;SDS011;1666;48.898;9.182;2022-07-30T10:02:29;5.53;;;2.83;;
3307;SDS011;1666;48.898;9.182;2022-07-30T10:05:12;3.67;;;2.20;;
3307;SDS011;1666;48.898;9.182;2022-07-30T10:07:46;4.40;;;2.70;;
3307;SDS011;1666;48.898;9.182;2022-07-30T10:10:21;3.00;;;2.30;;
3307;SDS011;1666;48.898;9.182;2022-07-30T10:12:53;4.43;;;2.22;;
3307;SDS011;1666;48.898;9.182;2022-07-30T10:15:30;4.72;;;2.70;;
3307;SDS011;1666;48.898;9.182;2022-07-30T10:18:02;3.75;;;2.75;;
3307;SDS011;1666;48.898;9.182;2022-07-30T10:20:36;8.38;;;3.47;;
3307;SDS011;1666;48.898;9.182;2022-07-30T10:23:06;5.97;;;3.00;;
3307;SDS011;1666;48.898;9.182;2022-07-30T10:25:41;5.45;;;2.65;;
3307;SDS011;1666;48.898;9.182;2022-07-30T10:28:21;2.70;;;2.47;;
3307;SDS011;1666;48.898;9.182;2022-07-30T10:30:52;3.00;;;2.40;;
3307;SDS011;1666;48.898;9.182;2022-07-30T10:33:26;2.13;;;1.92;;
3307;SDS011;1666;48.898;9.182;2022-07-30T10:36:08;3.72;;;2.53;;
3307;SDS011;1666;48.898;9.182;2022-07-30T10:38:39;4.53;;;2.72;;
3307;SDS011;1666;48.898;9.182;2022-07-30T10:41:22;6.22;;;2.78;;
3307;SDS011;1666;48.898;9.182;2022-07-30T10:44:21;6.45;;;2.38;;
3307;SDS011;1666;48.898;9.182;2022-07-30T10:47:02;6.40;;;3.00;;
3307;SDS011;1666;48.898;9.182;2022-07-30T10:49:36;3.42;;;2.47;;
3307;SDS011;1666;48.898;9.182;2022-07-30T10:52:11;4.68;;;2.47;;
3307;SDS011;1666;48.898;9.182;2022-07-30T10:54:42;4.80;;;2.38;;
3307;SDS011;1666;48.898;9.182;2022-07-30T10:57:13;5.40;;;2.30;;
3307;SDS011;1666;48.898;9.182;2022-07-30T11:00:10;2.38;;;2.17;;
3307;SDS011;1666;48.898;9.182;2022-07-30T11:08:58;3.92;;;2.60;;
3307;SDS011;1666;48.898;9.182;2022-07-30T11:11:41;6.40;;;3.33;;
3307;SDS011;1666;48.898;9.182;2022-07-30T11:18:02;4.90;;;2.03;;
3307;SDS011;1666;48.898;9.182;2022-07-30T11:20:39;2.83;;;1.77;;
3307;SDS011;1666;48.898;9.182;2022-07-30T11:29:38;9.43;;;1.92;;
3307;SDS011;1666;48.898;9.182;2022-07-30T11:32:22;2.13;;;1.70;;
3307;SDS011;1666;48.898;9.182;2022-07-30T11:37:57;4.20;;;2.05;;
3307;SDS011;1666;48.898;9.182;2022-07-30T11:40:33;7.32;;;1.95;;
3307;SDS011;1666;48.898;9.182;2022-07-30T11:43:18;2.38;;;1.55;;
3307;SDS011;1666;48.898;9.182;2022-07-30T11:46:08;2.80;;;1.77;;
3307;SDS011;1666;48.898;9.182;2022-07-30T11:48:43;3.13;;;1.83;;
3307;SDS011;1666;48.898;9.182;2022-07-30T11:51:23;3.15;;;1.63;;
3307;SDS011;1666;48.898;9.182;2022-07-30T11:54:00;6.00;;;2.03;;
3307;SDS011;1666;48.898;9.182;2022-07-30T11:56:31;7.10;;;1.70;;
3307;SDS011;1666;48.898;9.182;2022-07-30T11:59:03;3.95;;;2.03;;
3307;SDS011;1666;48.898;9.182;2022-07-30T12:01:36;3.78;;;1.88;;
3307;SDS011;1666;48.898;9.182;2022-07-30T12:04:07;3.10;;;1.80;;
3307;SDS011;1666;48.898;9.182;2022-07-30T12:06:42;1.77;;;1.60;;
3307;SDS011;1666;48.898;9.182;2022-07-30T12:09:20;3.97;;;2.05;;
3307;SDS011;1666;48.898;9.182;2022-07-30T12:11:54;3.30;;;2.00;;
3307;SDS011;1666;48.898;9.182;2022-07-30T12:14:35;2.85;;;1.92;;
3307;SDS011;1666;48.898;9.182;2022-07-30T12:17:07;3.03;;;2.10;;
3307;SDS011;1666;48.898;9.182;2022-07-30T12:19:42;6.22;;;1.90;;
3307;SDS011;1666;48.898;9.182;2022-07-30T12:22:14;3.47;;;1.80;;
3307;SDS011;1666;48.898;9.182;2022-07-30T12:24:45;3.13;;;1.92;;
3307;SDS011;1666;48.898;9.182;2022-07-30T12:27:15;7.20;;;1.83;;
3307;SDS011;1666;48.898;9.182;2022-07-30T12:29:46;3.95;;;1.90;;
3307;SDS011;1666;48.898;9.182;2022-07-30T12:32:18;6.00;;;1.90;;
3307;SDS011;1666;48.898;9.182;2022-07-30T12:34:52;4.07;;;1.90;;
3307;SDS011;1666;48.898;9.182;2022-07-30T12:37:22;1.85;;;1.65;;
3307;SDS011;1666;48.898;9.182;2022-07-30T12:40:03;3.13;;;2.05;;
3307;SDS011;1666;48.898;9.182;2022-07-30T12:42:47;2.30;;;1.80;;
3307;SDS011;1666;48.898;9.182;2022-07-30T12:45:25;2.75;;;1.70;;
3307;SDS011;1666;48.898;9.182;2022-07-30T12:48:18;4.43;;;1.95;;
3307;SDS011;1666;48.898;9.182;2022-07-30T12:50:48;3.30;;;2.13;;
3307;SDS011;1666;48.898;9.182;2022-07-30T12:53:32;1.60;;;1.40;;
3307;SDS011;1666;48.898;9.182;2022-07-30T12:56:10;3.30;;;2.00;;
3307;SDS011;1666;48.898;9.182;2022-07-30T12:58:44;7.22;;;2.30;;
3307;SDS011;1666;48.898;9.182;2022-07-30T13:01:15;5.25;;;1.85;;
3307;SDS011;1666;48.898;9.182;2022-07-30T13:03:50;7.43;;;2.00;;
3307;SDS011;1666;48.898;9.182;2022-07-30T13:06:32;2.53;;;1.92;;
3307;SDS011;1666;48.898;9.182;2022-07-30T13:09:03;4.25;;;1.88;;
3307;SDS011;1666;48.898;9.182;2022-07-30T13:11:37;3.13;;;2.03;;
3307;SDS011;1666;48.898;9.182;2022-07-30T13:14:15;4.15;;;2.03;;
3307;SDS011;1666;48.898;9.182;2022-07-30T13:16:52;3.83;;;1.95;;
3307;SDS011;1666;48.898;9.182;2022-07-30T13:19:32;3.53;;;2.00;;
3307;SDS011;1666;48.898;9.182;2022-07-30T13:22:02;2.55;;;2.08;;
3307;SDS011;1666;48.898;9.182;2022-07-30T13:24:32;4.18;;;2.05;;
3307;SDS011;1666;48.898;9.182;2022-07-30T13:27:02;3.83;;;1.90;;
3307;SDS011;1666;48.898;9.182;2022-07-30T13:29:33;5.35;;;1.98;;
3307;SDS011;1666;48.898;9.182;2022-07-30T13:32:03;3.35;;;1.60;;
3307;SDS011;1666;48.898;9.182;2022-07-30T13:34:35;3.25;;;1.80;;
3307;SDS011;1666;48.898;9.182;2022-07-30T13:37:07;4.35;;;2.00;;
3307;SDS011;1666;48.898;9.182;2022-07-30T13:39:40;3.60;;;1.75;;
3307;SDS011;1666;48.898;9.182;2022-07-30T13:42:10;2.35;;;1.83;;
3307;SDS011;1666;48.898;9.182;2022-07-30T13:44:40;4.60;;;1.52;;
3307;SDS011;1666;48.898;9.182;2022-07-30T13:47:12;3.10;;;1.70;;
3307;SDS011;1666;48.898;9.182;2022-07-30T13:49:44;3.10;;;1.50;;
3307;SDS011;1666;48.898;9.182;2022-07-30T13:52:16;5.15;;;1.85;;
3307;SDS011;1666;48.898;9.182;2022-07-30T13:54:46;2.30;;;1.48;;
3307;SDS011;1666;48.898;9.182;2022-07-30T13:57:18;4.82;;;2.30;;
3307;SDS011;1666;48.898;9.182;2022-07-30T13:59:48;2.58;;;1.58;;
3307;SDS011;1666;48.898;9.182;2022-07-30T14:02:18;2.55;;;1.42;;
3307;SDS011;1666;48.898;9.182;2022-07-30T14:04:50;4.53;;;1.90;;
3307;SDS011;1666;48.898;9.182;2022-07-30T14:07:20;2.10;;;1.52;;
3307;SDS011;1666;48.898;9.182;2022-07-30T14:09:50;2.45;;;1.70;;
3307;SDS011;1666;48.898;9.182;2022-07-30T14:12:20;3.75;;;1.50;;
3307;SDS011;1666;48.898;9.182;2022-07-30T14:14:50;2.50;;;1.58;;
3307;SDS011;1666;48.898;9.182;2022-07-30T14:17:20;1.42;;;1.33;;
3307;SDS011;1666;48.898;9.182;2022-07-30T14:19:52;2.17;;;1.63;;
3307;SDS011;1666;48.898;9.182;2022-07-30T14:22:22;3.53;;;1.40;;
3307;SDS011;1666;48.898;9.182;2022-07-30T14:24:52;2.45;;;1.63;;
3307;SDS011;1666;48.898;9.182;2022-07-30T14:27:22;1.70;;;1.35;;
3307;SDS011;1666;48.898;9.182;2022-07-30T14:29:52;2.03;;;1.33;;
3307;SDS011;1666;48.898;9.182;2022-07-30T14:32:22;1.73;;;1.38;;
3307;SDS011;1666;48.898;9.182;2022-07-30T14:35:00;6.25;;;1.50;;
3307;SDS011;1666;48.898;9.182;2022-07-30T14:37:30;4.28;;;1.40;;
3307;SDS011;1666;48.898;9.182;2022-07-30T14:40:00;2.50;;;1.38;;
3307;SDS011;1666;48.898;9.182;2022-07-30T14:42:30;2.67;;;1.67;;
3307;SDS011;1666;48.898;9.182;2022-07-30T14:45:01;3.60;;;1.75;;
3307;SDS011;1666;48.898;9.182;2022-07-30T14:47:31;3.78;;;1.45;;
3307;SDS011;1666;48.898;9.182;2022-07-30T14:50:04;2.50;;;1.67;;
3307;SDS011;1666;48.898;9.182;2022-07-30T14:52:36;3.35;;;1.50;;
3307;SDS011;1666;48.898;9.182;2022-07-30T14:55:07;1.75;;;1.52;;
3307;SDS011;1666;48.898;9.182;2022-07-30T14:57:38;2.72;;;1.50;;
3307;SDS011;1666;48.898;9.182;2022-07-30T15:00:12;1.75;;;1.40;;
3307;SDS011;1666;48.898;9.182;2022-07-30T15:02:45;1.42;;;1.30;;
3307;SDS011;1666;48.898;9.182;2022-07-30T15:05:17;5.20;;;1.92;;
3307;SDS011;1666;48.898;9.182;2022-07-30T15:07:47;2.75;;;1.58;;
3307;SDS011;1666;48.898;9.182;2022-07-30T15:10:17;2.17;;;1.40;;
3307;SDS011;1666;48.898;9.182;2022-07-30T15:12:48;2.78;;;1.58;;
3307;SDS011;1666;48.898;9.182;2022-07-30T15:15:18;2.45;;;1.50;;
3307;SDS011;1666;48.898;9.182;2022-07-30T15:17:50;2.65;;;1.52;;
3307;SDS011;1666;48.898;9.182;2022-07-30T15:20:22;3.60;;;1.63;;
3307;SDS011;1666;48.898;9.182;2022-07-30T15:22:53;3.00;;;1.65;;
3307;SDS011;1666;48.898;9.182;2022-07-30T15:25:23;1.60;;;1.30;;
3307;SDS011;1666;48.898;9.182;2022-07-30T15:27:53;1.38;;;1.13;;
3307;SDS011;1666;48.898;9.182;2022-07-30T15:30:23;2.20;;;1.38;;
3307;SDS011;1666;48.898;9.182;2022-07-30T15:32:52;6.40;;;1.90;;
3307;SDS011;1666;48.898;9.182;2022-07-30T15:35:25;2.60;;;1.50;;
3307;SDS011;1666;48.898;9.182;2022-07-30T15:37:55;1.85;;;1.60;;
3307;SDS011;1666;48.898;9.182;2022-07-30T15:40:25;1.80;;;1.60;;
3307;SDS011;1666;48.898;9.182;2022-07-30T15:42:55;2.30;;;1.65;;
3307;SDS011;1666;48.898;9.182;2022-07-30T15:45:27;3.53;;;1.80;;
3307;SDS011;1666;48.898;9.182;2022-07-30T15:48:17;1.77;;;1.48;;
3307;SDS011;1666;48.898;9.182;2022-07-30T15:50:55;2.00;;;1.75;;
3307;SDS011;1666;48.898;9.182;2022-07-30T15:53:29;4.88;;;1.60;;
3307;SDS011;1666;48.898;9.182;2022-07-30T15:56:01;1.98;;;1.30;;
3307;SDS011;1666;48.898;9.182;2022-07-30T15:58:31;3.90;;;1.75;;
3307;SDS011;1666;48.898;9.182;2022-07-30T16:01:10;4.55;;;1.85;;
3307;SDS011;1666;48.898;9.182;2022-07-30T16:03:40;4.65;;;1.70;;
3307;SDS011;1666;48.898;9.182;2022-07-30T16:06:13;2.63;;;1.75;;
3307;SDS011;1666;48.898;9.182;2022-07-30T16:08:43;2.83;;;2.38;;
3307;SDS011;1666;48.898;9.182;2022-07-30T16:11:12;3.13;;;1.88;;
3307;SDS011;1666;48.898;9.182;2022-07-30T16:13:42;1.63;;;1.50;;
3307;SDS011;1666;48.898;9.182;2022-07-30T16:16:17;3.53;;;1.65;;
3307;SDS011;1666;48.898;9.182;2022-07-30T16:18:50;3.60;;;1.88;;
3307;SDS011;1666;48.898;9.182;2022-07-30T16:21:22;6.75;;;1.95;;
3307;SDS011;1666;48.898;9.182;2022-07-30T16:23:52;2.08;;;1.73;;